CDT,Max TemperatureF,Mean TemperatureF,Min TemperatureF,Max Dew PointF,MeanDew PointF,Min DewpointF,Max Humidity, Mean Humidity, Min Humidity, Max Sea Level PressureIn, Mean Sea Level PressureIn, Min Sea Level PressureIn, Max VisibilityMiles, Mean VisibilityMiles, Min VisibilityMiles, Max Wind SpeedMPH, Mean Wind SpeedMPH, Max Gust SpeedMPH,PrecipitationIn, CloudCover, Events, WindDirDegrees
2013-6-1,88,82,76,74,72,70,94,79,63,29.98,29.94,29.91,10,10,10,16,9,21,0.00,3,,158
2013-6-2,83,77,70,75,70,66,91,80,69,30.02,29.94,29.86,10,8,0,26,4,33,0.57,3,Fog-Rain,126
2013-6-3,89,81,73,74,71,67,93,70,47,29.92,29.88,29.83,10,10,10,14,3,16,0.00,2,,275
2013-6-4,90,83,75,75,73,70,87,75,63,29.92,29.89,29.86,10,10,9,25,6,30,0.09,3,Rain,112
2013-6-5,89,83,77,75,73,71,85,73,61,29.93,29.87,29.81,10,10,5,16,8,21,T,3,Rain,128
2013-6-6,90,81,72,74,72,68,87,73,59,29.86,29.81,29.74,10,10,5,24,5,29,0.24,3,Rain-Thunderstorm,49
2013-6-7,86,79,72,72,69,67,93,76,58,29.89,29.84,29.78,10,10,9,12,5,16,0.00,3,,309
2013-6-8,88,81,73,72,70,68,93,76,59,29.99,29.92,29.87,10,10,4,15,7,20,0.00,4,Rain,142
2013-6-9,88,82,75,74,72,68,88,75,61,29.98,29.95,29.90,10,8,1,20,7,24,0.06,4,Rain,168
2013-6-10,89,82,74,76,74,66,94,77,59,30.04,30.00,29.95,10,8,2,31,6,41,0.63,4,Rain,217
2013-6-11,91,85,78,76,74,71,91,73,55,30.09,30.05,30.01,10,9,5,15,4,18,0.00,1,,177
2013-6-12,91,83,75,76,74,68,94,72,49,30.09,30.05,30.01,10,10,10,12,5,15,0.00,0,,267
2013-6-13,92,84,75,77,74,72,94,73,52,30.08,29.99,29.89,10,10,8,12,5,15,0.00,1,,286
2013-6-14,95,87,79,79,76,69,91,72,52,29.93,29.90,29.84,10,10,9,18,10,24,0.00,1,,306
2013-6-15,91,86,80,74,72,68,79,69,58,30.00,29.96,29.92,10,10,10,18,6,25,0.40,1,,101
2013-6-16,92,85,78,76,75,72,91,74,56,30.04,29.99,29.96,10,10,9,15,6,18,0.18,2,,215
2013-6-17,91,84,77,75,73,70,88,70,52,30.04,29.98,29.92,10,9,0,26,7,31,0.20,3,Rain,225
2013-6-18,92,84,75,73,71,65,87,64,41,30.01,29.95,29.88,10,10,10,15,9,20,0.00,1,,254
2013-6-19,87,82,76,75,72,69,87,74,61,30.04,29.99,29.94,10,10,10,14,5,49,0.00,2,,296
2013-6-20,90,82,73,75,71,67,85,72,59,30.10,30.06,30.01,10,10,10,22,4,28,0.17,3,,324
2013-6-21,92,83,74,74,71,68,93,70,47,30.11,30.07,30.04,10,10,9,20,5,72,0.00,0,,56
2013-6-22,89,82,75,75,72,70,87,71,55,30.11,30.05,30.00,10,10,10,18,5,45,T,2,,95
2013-6-23,92,83,74,74,72,69,87,70,52,30.06,30.03,30.01,10,10,10,21,4,25,0.03,1,Thunderstorm,138
2013-6-24,91,83,75,74,71,64,85,68,50,30.13,30.08,30.04,10,10,10,17,7,22,0.02,1,,163
2013-6-25,92,85,78,76,74,71,85,69,52,30.11,30.06,30.00,10,10,2,14,6,18,0.00,3,Rain-Thunderstorm,159
2013-6-26,92,85,77,75,74,72,85,71,56,30.05,30.01,29.95,10,10,10,18,6,22,T,2,,173
2013-6-27,95,86,77,77,75,73,85,69,52,30.04,29.98,29.91,10,10,10,9,6,,0.00,1,,273
2013-6-28,95,88,80,77,76,73,91,69,46,29.94,29.87,29.77,10,10,10,16,9,21,0.00,1,,274
2013-6-29,88,80,72,77,74,69,91,75,59,29.84,29.78,29.69,10,8,1,30,9,41,1.80,4,Rain-Thunderstorm,271
2013-6-30,93,83,73,74,68,63,87,60,32,29.80,29.75,29.70,10,9,2,18,7,23,0.00,2,Rain,319